Latest Weather Observations for Esperance Airport

IDW60801

Issued at 10:54 pm WST Friday 28 February 2020 (issued every 10 minutes, with the page automatically refreshed every 10 minutes)

About weather observations | Map of weather stations | Latest weather observations for WA | Other Formats
Station Details ID: 009542 Name: ESPERANCE AERO Lat: -33.68 Lon: 121.83 Height: 142.0 m
Data from the previous 72 hours. | See also: Recent months at Esperance Airport
Date/Time
WST
Temp
°C
App
Temp
°C
Dew
Point
°C
Rel
Hum
%
Delta-T
°C
Wind Press
QNH
hPa
Press
MSL
hPa
Rain since
9am
mm
Dir  Spd
km/h
Gust
km/h
Spd
kts
Gust
kts
28/10:30pm 19.7 16.1 16.3 81 2.1 NNE 30 43 16 23 1013.3 1012.8 4.2
28/10:00pm 19.7 17.4 16.7 83 1.8 N 24 39 13 21 1013.4 1012.9 4.0
28/09:30pm 19.0 18.2 17.0 88 1.2 N 17 24 9 13 1013.6 1013.1 4.0
28/09:00pm 19.2 18.4 17.2 88 1.2 NW 17 24 9 13 1015.3 1014.8 3.4
28/08:30pm 19.5 18.5 16.7 84 1.7 N 17 24 9 13 1014.0 1013.5 3.2
28/08:00pm 19.4 17.9 16.8 85 1.6 NNE 20 28 11 15 1013.1 1012.6 3.2
28/07:30pm 19.3 19.3 17.3 88 1.2 NE 13 22 7 12 1013.0 1012.5 3.2
28/07:00pm 19.3 18.7 17.6 90 1.0 NE 17 24 9 13 1012.8 1012.3 3.0
28/06:30pm 19.3 19.4 17.4 89 1.2 E 13 17 7 9 1013.5 1013.0 3.0
28/06:00pm 19.4 19.5 17.5 89 1.2 E 13 17 7 9 1013.8 1013.3 3.0
28/05:30pm 19.4 20.4 17.7 90 1.0 NNE 9 13 5 7 1014.8 1014.3 2.8
28/05:00pm 19.5 20.4 17.6 89 1.2 NNE 9 11 5 6 1015.0 1014.5 2.8
28/04:30pm 19.1 19.9 17.4 90 1.0 ENE 9 15 5 8 1013.8 1013.3 2.8
28/04:00pm 18.8 18.5 17.3 91 0.9 ENE 15 19 8 10 1013.8 1013.3 2.8
28/03:30pm 19.2 20.5 17.5 90 1.0 ENE 7 13 4 7 1014.3 1013.8 2.6
28/03:00pm 19.0 19.0 17.3 90 1.0 NNE 13 17 7 9 1014.6 1014.1 2.2
28/02:30pm 19.1 19.7 16.9 87 1.3 N 9 13 5 7 1015.0 1014.5 1.2
28/02:00pm 19.3 19.5 15.8 80 2.1 NE 9 17 5 9 1014.4 1013.9 0.4
28/01:30pm 19.9 19.5 15.3 75 2.7 NE 11 17 6 9 1014.6 1014.1 0.0
28/01:00pm 19.4 18.7 15.3 77 2.4 E 13 17 7 9 1014.6 1014.1 0.0
28/12:30pm 19.9 20.7 14.9 73 2.9 E 4 9 2 5 1015.0 1014.5 0.0
28/12:00pm 19.7 19.6 14.9 74 2.8 S 9 13 5 7 1015.3 1014.8 0.0
28/11:30am 19.8 19.4 15.2 75 2.7 SSW 11 22 6 12 1015.7 1015.2 0.0
28/11:00am 19.9 18.4 15.3 75 2.7 SSW 17 24 9 13 1014.8 1014.3 0.0
28/10:30am 17.9 14.5 14.8 82 1.8 N 26 41 14 22 1013.1 1012.6 0.0
28/10:00am 16.9 12.6 14.4 85 1.4 NNE 30 43 16 23 1012.6 1012.1 0.0
28/09:52am 16.6 13.3 14.1 85 1.4 NE 24 37 13 20 1012.9 1012.4 0.0
28/09:30am 16.7 13.8 14.0 84 1.5 N 22 37 12 20 1015.1 1014.6 0.0
28/09:00am 16.5 14.9 13.8 84 1.5 SSW 15 26 8 14 1016.9 1016.3 0.4
28/08:30am 16.3 12.1 13.4 83 1.6 NNE 28 41 15 22 1015.5 1015.0 0.4
28/08:00am 16.1 11.9 13.4 84 1.5 N 28 46 15 25 1016.3 1015.8 0.4
28/07:39am 16.3 12.0 13.2 82 1.7 NNE 28 46 15 25 1016.5 1015.9 0.2
28/07:30am 16.2 11.1 13.1 82 1.7 NNE 32 46 17 25 1015.7 1015.2 0.2
28/07:00am 17.3 11.7 12.2 72 2.8 NNE 33 46 18 25 1016.6 1016.0 0.0
28/06:30am 17.4 13.4 11.9 70 3.0 NNE 24 33 13 18 1016.6 1016.0 0.0
28/06:00am 17.3 13.3 11.8 70 3.0 NNE 24 35 13 19 1017.1 1016.5 0.0
28/05:30am 17.1 13.2 12.0 72 2.8 NNE 24 33 13 18 1017.1 1016.5 0.0
28/05:00am 17.0 13.1 12.1 73 2.7 NNE 24 33 13 18 1017.1 1016.5 0.0
28/04:30am 16.9 13.0 12.0 73 2.7 NNE 24 39 13 21 1017.0 1016.4 0.0
28/04:00am 16.8 13.8 12.1 74 2.6 NE 19 26 10 14 1017.1 1016.5 0.0
28/03:30am 16.7 15.0 12.3 75 2.4 NE 13 22 7 12 1017.5 1016.9 0.0
28/03:00am 16.6 14.9 12.4 76 2.3 NE 13 20 7 11 1017.9 1017.3 0.0
28/02:30am 16.6 14.9 12.6 77 2.2 NE 13 20 7 11 1017.7 1017.1 0.0
28/02:00am 16.7 14.3 12.7 77 2.2 NE 17 24 9 13 1017.2 1016.6 0.0
28/01:30am 16.8 14.0 12.5 76 2.4 NE 19 28 10 15 1017.5 1016.9 0.0
28/01:00am 16.9 13.5 12.6 76 2.4 NE 22 32 12 17 1017.2 1016.6 0.0
28/12:30am 16.9 13.5 12.4 75 2.5 NE 22 35 12 19 1017.1 1016.5 0.0
28/12:00am 17.1 13.7 12.4 74 2.6 NNE 22 35 12 19 1017.8 1017.2 0.0
 
Date/Time
WST
Temp
°C
App
Temp
°C
Dew
Point
°C
Rel
Hum
%
Delta-T
°C
Wind Press
QNH
hPa
Press
MSL
hPa
Rain since
9am
mm
Dir  Spd
km/h
Gust
km/h
Spd
kts
Gust
kts
27/11:30pm 17.2 14.2 12.5 74 2.6 NNE 20 32 11 17 1018.2 1017.6 0.0
27/11:00pm 17.3 14.3 12.6 74 2.6 NE 20 33 11 18 1018.3 1017.7 0.0
27/10:30pm 17.3 14.3 12.6 74 2.6 NE 20 32 11 17 1018.9 1018.4 0.0
27/10:00pm 17.4 14.1 12.7 74 2.6 ENE 22 32 12 17 1019.0 1018.5 0.0
27/09:30pm 17.5 13.8 12.6 73 2.7 ENE 24 35 13 19 1018.9 1018.4 0.0
27/09:00pm 17.7 14.0 12.8 73 2.7 ENE 24 37 13 20 1019.2 1018.7 0.0
27/08:30pm 17.7 14.1 13.0 74 2.7 E 24 35 13 19 1019.3 1018.8 0.0
27/08:00pm 17.8 13.9 13.3 75 2.5 E 26 33 14 18 1019.2 1018.7 0.0
27/07:30pm 18.0 13.7 13.1 73 2.8 ESE 28 35 15 19 1019.3 1018.8 0.0
27/07:00pm 18.2 13.9 13.1 72 2.9 ESE 28 33 15 18 1019.2 1018.7 0.0
27/06:30pm 18.6 14.7 13.2 71 3.1 ESE 26 35 14 19 1019.0 1018.5 0.0
27/06:00pm 19.3 14.7 13.5 69 3.3 ESE 30 35 16 19 1018.7 1018.2 0.0
27/05:30pm 19.8 15.2 13.5 67 3.6 E 30 37 16 20 1018.3 1017.7 0.0
27/05:00pm 20.4 15.4 13.4 64 4.0 ESE 32 41 17 22 1018.2 1017.6 0.0
27/04:30pm 21.0 16.0 13.4 62 4.4 ESE 32 41 17 22 1018.3 1017.7 0.0
27/04:00pm 21.6 17.9 13.8 61 4.5 ESE 26 32 14 17 1018.8 1018.3 0.0
27/03:30pm 21.7 17.5 13.6 60 4.7 SE 28 35 15 19 1018.9 1018.4 0.0
27/03:00pm 22.1 18.0 13.7 59 4.9 ESE 28 37 15 20 1018.8 1018.3 0.0
27/02:30pm 21.9 18.2 14.0 61 4.6 SE 26 35 14 19 1019.3 1018.8 0.0
27/02:00pm 22.0 18.0 14.1 61 4.6 SE 28 35 15 19 1019.5 1019.0 0.0
27/01:30pm 23.7 22.0 12.4 49 6.5 E 13 20 7 11 1019.5 1019.0 0.0
27/01:00pm 23.2 20.7 12.2 50 6.3 E 17 24 9 13 1019.4 1018.9 0.0
27/12:30pm 22.8 19.8 12.4 52 5.9 E 20 30 11 16 1019.1 1018.6 0.0
27/12:00pm 23.0 20.7 12.9 53 5.8 ENE 17 26 9 14 1019.5 1019.0 0.0
27/11:30am 22.5 20.2 13.0 55 5.5 ENE 17 32 9 17 1019.6 1019.1 0.0
27/11:00am 21.7 18.9 13.1 58 4.9 ENE 20 28 11 15 1019.9 1019.4 0.0
27/10:30am 21.6 18.9 13.5 60 4.7 ENE 20 32 11 17 1019.9 1019.4 0.0
27/10:00am 21.0 18.3 13.4 62 4.4 NNE 20 30 11 16 1020.4 1019.9 0.0
27/09:30am 20.4 18.3 13.6 65 3.9 NNE 17 24 9 13 1020.9 1020.4 0.0
27/09:00am 20.4 18.3 13.6 65 3.9 NNE 17 24 9 13 1021.1 1020.6 0.0
27/08:30am 20.0 17.4 13.7 67 3.6 NNE 20 30 11 16 1021.4 1020.9 0.0
27/08:00am 19.4 17.4 13.8 70 3.2 NNE 17 24 9 13 1021.6 1021.1 0.0
27/07:30am 18.6 17.0 13.9 74 2.7 NE 15 22 8 12 1021.5 1021.0 0.0
27/07:00am 18.2 17.0 14.1 77 2.4 NNE 13 19 7 10 1021.8 1021.3 0.0
27/06:30am 17.7 16.1 14.0 79 2.1 NNE 15 24 8 13 1021.5 1021.0 0.0
27/06:00am 17.3 16.9 14.0 81 1.9 NE 9 13 5 7 1021.8 1021.3 0.0
27/05:30am 17.1 16.7 14.2 83 1.7 NNE 9 11 5 6 1021.4 1020.9 0.0
27/05:00am 17.0 16.7 14.3 84 1.5 N 9 13 5 7 1021.1 1020.6 0.0
27/04:30am 16.8 16.1 14.3 85 1.4 N 11 17 6 9 1020.3 1019.8 0.0
27/04:00am 16.7 16.0 14.2 85 1.4 N 11 15 6 8 1020.0 1019.5 0.0
27/03:30am 16.6 15.9 14.2 86 1.4 NNE 11 17 6 9 1019.7 1019.2 0.0
27/03:00am 16.4 15.7 14.2 87 1.3 NNE 11 17 6 9 1019.6 1019.1 0.0
27/02:30am 16.4 15.6 14.1 86 1.3 NNE 11 20 6 11 1018.9 1018.4 0.0
27/02:00am 16.7 15.6 14.2 85 1.4 NE 13 19 7 10 1018.8 1018.3 0.0
27/01:30am 16.8 14.3 14.1 84 1.5 NE 20 28 11 15 1018.4 1017.8 0.0
27/01:00am 17.0 14.5 14.1 83 1.7 NE 20 30 11 16 1018.8 1018.3 0.0
27/12:30am 17.1 14.7 14.4 84 1.6 NE 20 30 11 16 1019.2 1018.7 0.0
27/12:00am 17.4 15.2 14.5 83 1.7 NE 19 28 10 15 1019.9 1019.4 0.0
 
Date/Time
WST
Temp
°C
App
Temp
°C
Dew
Point
°C
Rel
Hum
%
Delta-T
°C
Wind Press
QNH
hPa
Press
MSL
hPa
Rain since
9am
mm
Dir  Spd
km/h
Gust
km/h
Spd
kts
Gust
kts
26/11:30pm 17.5 15.1 14.4 82 1.8 ENE 20 28 11 15 1020.3 1019.8 0.0
26/11:00pm 17.6 15.4 14.9 84 1.6 NE 20 32 11 17 1020.5 1020.0 0.0
26/10:30pm 17.7 15.1 15.0 84 1.6 ENE 22 32 12 17 1020.8 1020.3 0.0
26/10:00pm 17.7 14.8 15.0 84 1.6 ENE 24 32 13 17 1021.0 1020.5 0.0
26/09:30pm 17.8 15.7 15.1 84 1.6 ENE 20 28 11 15 1021.1 1020.6 0.0
26/09:00pm 17.9 15.3 15.0 83 1.7 ENE 22 26 12 14 1021.5 1021.0 0.0
26/08:30pm 17.9 15.3 14.8 82 1.8 E 22 28 12 15 1021.6 1021.1 0.0
26/08:00pm 18.1 15.4 14.6 80 2.0 E 22 28 12 15 1021.3 1020.8 0.0
26/07:30pm 18.3 14.8 14.6 79 2.2 E 26 32 14 17 1020.8 1020.3 0.0
26/07:00pm 18.8 15.0 13.6 72 3.0 ESE 26 33 14 18 1020.5 1020.0 0.0
26/06:30pm 19.2 15.0 12.5 65 3.8 ESE 26 35 14 19 1020.0 1019.5 0.0
26/06:00pm 20.1 16.3 12.3 61 4.4 SE 24 33 13 18 1019.8 1019.3 0.0
26/05:30pm 21.1 16.9 12.5 58 4.9 ESE 26 30 14 16 1019.5 1019.0 0.0
26/05:00pm 22.4 18.3 12.6 54 5.6 ESE 26 35 14 19 1019.3 1018.8 0.0
26/04:30pm 22.4 18.0 12.9 55 5.5 ESE 28 37 15 20 1019.3 1018.8 0.0
26/04:00pm 22.7 18.0 13.2 55 5.5 ESE 30 37 16 20 1019.2 1018.7 0.0
26/03:30pm 23.2 18.5 13.1 53 5.9 ESE 30 39 16 21 1019.2 1018.7 0.0
26/03:00pm 25.0 22.1 13.9 50 6.6 SE 22 33 12 18 1018.9 1018.4 0.0
26/02:30pm 24.2 21.5 13.4 51 6.3 ESE 20 35 11 19 1019.2 1018.7 0.0
26/02:00pm 24.2 21.8 13.7 52 6.2 ESE 19 28 10 15 1019.2 1018.7 0.0
26/01:30pm 25.0 22.6 13.9 50 6.6 E 19 30 10 16 1019.1 1018.6 0.0
26/01:00pm 23.6 22.0 13.8 54 5.7 ENE 15 22 8 12 1019.9 1019.4 0.0
26/12:30pm 23.5 21.8 13.7 54 5.8 E 15 22 8 12 1020.3 1019.8 0.0
26/12:00pm 22.3 21.0 13.6 58 5.1 E 13 19 7 10 1020.6 1020.1 0.0
26/11:30am 22.5 20.8 13.6 57 5.2 ESE 15 26 8 14 1020.7 1020.2 0.0
26/11:00am 21.9 19.2 13.5 59 4.9 ESE 20 28 11 15 1021.0 1020.5 0.0
26/10:30am 21.1 19.1 13.8 63 4.2 ESE 17 22 9 12 1021.8 1021.3 0.0
26/10:00am 20.5 18.5 13.9 66 3.8 ESE 17 22 9 12 1021.8 1021.3 0.0
26/09:30am 20.0 18.7 13.7 67 3.6 E 13 20 7 11 1022.1 1021.6 0.0
26/09:00am 19.8 17.5 14.0 69 3.4 ESE 19 28 10 15 1022.0 1021.5 0.4
26/08:30am 19.4 16.6 14.2 72 3.0 ESE 22 30 12 16 1021.5 1021.0 0.4
26/08:00am 18.5 16.2 14.2 76 2.5 E 19 24 10 13 1021.5 1021.0 0.4
26/07:30am 17.8 15.0 14.3 80 2.0 ESE 22 30 12 16 1021.5 1021.0 0.4
26/07:00am 17.4 15.4 15.0 86 1.4 ESE 19 24 10 13 1021.3 1020.8 0.4
26/06:30am 16.9 15.4 15.2 90 1.0 E 17 24 9 13 1021.4 1020.9 0.4
26/06:00am 16.5 15.0 15.2 92 0.8 ESE 17 22 9 12 1020.8 1020.3 0.4
26/05:30am 16.5 15.4 15.4 93 0.6 ESE 15 20 8 11 1020.9 1020.4 0.4
26/05:29am 16.4 15.3 15.3 93 0.6 ESE 15 20 8 11 1020.9 1020.4 0.4
26/05:00am 16.3 15.3 15.5 95 0.5 ESE 15 20 8 11 1020.4 1019.9 0.4
26/04:56am 16.3 15.3 15.5 95 0.5 ESE 15 20 8 11 1020.5 1020.0 0.4
26/04:30am 16.2 14.2 15.6 96 0.4 ESE 20 24 11 13 1019.8 1019.3 0.4
26/04:06am 16.0 14.2 15.4 96 0.4 ESE 19 24 10 13 1019.7 1019.2 0.4
26/04:00am 16.0 14.0 15.5 97 0.3 SE 20 26 11 14 1019.6 1019.1 0.4
26/03:51am 16.0 14.0 15.5 97 0.3 ESE 20 28 11 15 1019.6 1019.1 0.4
26/03:37am 16.1 14.1 15.6 97 0.3 ESE 20 28 11 15 1019.7 1019.2 0.4
26/03:30am 16.2 14.5 15.7 97 0.3 ESE 19 24 10 13 1019.9 1019.4 0.4
26/03:00am 16.4 15.1 15.9 97 0.3 ESE 17 20 9 11 1020.1 1019.6 0.4
26/02:43am 16.4 14.8 15.9 97 0.3 ESE 19 22 10 12 1020.2 1019.7 0.4
26/02:30am 16.5 14.9 16.0 97 0.3 ESE 19 24 10 13 1020.3 1019.8 0.4
26/02:00am 16.4 14.8 15.9 97 0.3 SE 19 28 10 15 1020.2 1019.7 0.2
26/01:30am 16.4 14.6 15.9 97 0.3 SE 20 28 11 15 1020.3 1019.8 0.2
26/01:00am 16.5 13.9 16.0 97 0.3 SE 24 30 13 16 1019.7 1019.2 0.2
26/12:53am 16.6 14.5 16.1 97 0.3 SE 22 30 12 16 1019.9 1019.4 0.2
26/12:30am 16.6 14.8 16.0 96 0.4 SE 20 26 11 14 1020.4 1019.9 0.2
26/12:00am 16.8 15.3 16.2 96 0.4 SE 19 24 10 13 1021.2 1020.7 0.2
 
Date/Time
WST
Temp
°C
App
Temp
°C
Dew
Point
°C
Rel
Hum
%
Delta-T
°C
Wind Press
QNH
hPa
Press
MSL
hPa
Rain since
9am
mm
Dir  Spd
km/h
Gust
km/h
Spd
kts
Gust
kts
25/11:30pm 17.3 16.6 16.5 95 0.5 SE 15 20 8 11 1021.0 1020.5 0.2
25/11:00pm 17.3 15.8 16.3 94 0.6 SE 19 26 10 14 1020.8 1020.3 0.0
25/10:57pm 17.3 16.2 16.3 94 0.6 SE 17 26 9 14 1020.8 1020.3 0.0
25/10:55pm 17.4 16.3 16.4 94 0.6 SE 17 22 9 12 1020.8 1020.3 0.0

Other formats

Comma delimited format used in spreadsheet applications
http://www.bom.gov.au/fwo/IDW60801/IDW60801.95638.axf

JavaScript Object Notation format (JSON) in row-major order
http://www.bom.gov.au/fwo/IDW60801/IDW60801.95638.json

Data quality

Most of these data are generated automatically and are frequently updated. Quality checks on data are not normally performed. It is possible for incorrect values to appear. Refer to information at About Latest Weather Observations and please check the disclaimer before using these data.